Alto, Louisiana
Current Conditions -  °F | °C
As of 10:58 PM on Tuesday 21 Oct 2014 (Local Time) from KMLU Reporting Station
Haze Haze  
Wind Chill: 57°   Ceiling: Unl
Heat Index: 57°   Visibility: 3mi
Dew Point: 57°   Wind: 3mph
Humidity: 100%   Direction: 30°NNE
Pressure: 30.08"   Gusts: NA
Location:  32.4475°N, 91.7992°W
Report Text: KMLU 220358Z AUTO 03003KT 3SM BR FEW046 14/14 A3008 RMK AO2
Loading
Personal Weather Stations






























Interactive Weather Map
Tropical Storm Tracking
New forecast layout! Learn more

10-Day Weather Forecast

Advertisements
Track Severe Weather on mobile